Terminal Aerodrome Forecast
Issued by NWS Hastings, NE

Home | Current Version | Previous Version | Text Only | Print | Product List | Glossary On
Versions: 1 2 3 4 5 6 7 8 9 10 11 12 13 14 15 16 17 18 19 20 21 22 23 24 25 26 27 28 29 30
009
FTUS45 KGID 201120
TAFEAR
TAF
KEAR 201120Z 2012/2112 20007KT P6SM SKC WS010/20045KT
     FM201400 20009G14KT P6SM SKC
     FM201800 19013G20KT P6SM SKC
     FM210100 17009KT P6SM FEW200
     FM210400 18010KT P6SM FEW200 WS010/20045KT
     FM211000 14007KT P6SM SCT200=

USA.gov is the U.S. government's official web portal to all federal, state and local government web resources and services.